createdAt,value
2018-05-29T00:00:56.829Z,1013.86
2018-05-29T00:02:06.547Z,1013.85
2018-05-29T00:03:16.535Z,1013.85
2018-05-29T00:04:26.246Z,1013.83
2018-05-29T00:05:36.223Z,1013.8
2018-05-29T00:06:46.200Z,1013.81
2018-05-29T00:07:55.927Z,1013.81
2018-05-29T00:09:05.914Z,1013.81
2018-05-29T00:10:15.898Z,1013.83
2018-05-29T00:11:25.610Z,1013.82
2018-05-29T00:12:35.935Z,1013.81
2018-05-29T00:13:45.662Z,1013.8
2018-05-29T00:14:55.646Z,1013.76
2018-05-29T00:16:05.619Z,1013.78
2018-05-29T00:17:15.350Z,1013.78
2018-05-29T00:18:25.061Z,1013.76
2018-05-29T00:19:35.040Z,1013.72
2018-05-29T00:20:45.029Z,1013.77
2018-05-29T00:21:54.745Z,1013.76
2018-05-29T00:23:04.724Z,1013.79
2018-05-29T00:24:14.198Z,1013.77
2018-05-29T00:25:24.169Z,1013.77
2018-05-29T00:26:34.146Z,1013.73
2018-05-29T00:27:43.870Z,1013.74
2018-05-29T00:28:53.838Z,1013.8
2018-05-29T00:30:03.552Z,1013.79
2018-05-29T00:31:13.534Z,1013.81
2018-05-29T00:32:23.500Z,1013.78
2018-05-29T00:33:33.214Z,1013.76
2018-05-29T00:34:42.662Z,1013.74
2018-05-29T00:35:52.384Z,1013.71
2018-05-29T00:37:02.365Z,1013.67
2018-05-29T00:38:12.343Z,1013.65
2018-05-29T00:39:22.325Z,1013.62
2018-05-29T00:40:32.041Z,1013.61
2018-05-29T00:41:42.019Z,1013.56
2018-05-29T00:42:52.004Z,1013.6
2018-05-29T00:44:01.978Z,1013.6
2018-05-29T00:45:11.971Z,1013.57
2018-05-29T00:46:21.938Z,1013.58
2018-05-29T00:47:31.918Z,1013.58
2018-05-29T00:48:41.893Z,1013.53
2018-05-29T00:49:51.611Z,1013.53
2018-05-29T00:51:01.590Z,1013.52
2018-05-29T00:52:11.570Z,1013.52
2018-05-29T00:53:21.552Z,1013.54
2018-05-29T00:54:31.271Z,1013.54
2018-05-29T00:55:40.988Z,1013.52
2018-05-29T00:56:50.708Z,1013.53
2018-05-29T00:58:00.839Z,1013.53
2018-05-29T00:59:10.818Z,1013.49
2018-05-29T01:00:20.530Z,1013.5
2018-05-29T01:01:30.252Z,1013.5
2018-05-29T01:02:40.234Z,1013.48
2018-05-29T01:03:50.212Z,1013.46
2018-05-29T01:05:00.189Z,1013.45
2018-05-29T01:06:10.167Z,1013.4
2018-05-29T01:07:19.886Z,1013.44
2018-05-29T01:08:29.602Z,1013.45
2018-05-29T01:09:39.318Z,1013.39
2018-05-29T01:10:49.287Z,1013.38
2018-05-29T01:11:59.008Z,1013.42
2018-05-29T01:13:08.971Z,1013.4
2018-05-29T01:14:18.684Z,1013.39
2018-05-29T01:15:28.662Z,1013.36
2018-05-29T01:16:38.638Z,1013.35
2018-05-29T01:17:48.356Z,1013.33
2018-05-29T01:18:58.328Z,1013.34
2018-05-29T01:20:08.315Z,1013.35
2018-05-29T01:21:18.340Z,1013.33
2018-05-29T01:22:28.056Z,1013.34
2018-05-29T01:23:38.041Z,1013.32
2018-05-29T01:24:47.749Z,1013.33
2018-05-29T01:25:57.738Z,1013.34
2018-05-29T01:27:07.466Z,1013.32
2018-05-29T01:28:17.445Z,1013.33
2018-05-29T01:29:27.424Z,1013.29
2018-05-29T01:30:37.393Z,1013.32
2018-05-29T01:31:47.099Z,1013.35
2018-05-29T01:32:56.815Z,1013.29
2018-05-29T01:34:06.885Z,1013.26
2018-05-29T01:35:16.868Z,1013.31
2018-05-29T01:36:26.836Z,1013.27
2018-05-29T01:37:36.811Z,1013.23
2018-05-29T01:38:46.777Z,1013.25
2018-05-29T01:39:56.754Z,1013.25
2018-05-29T01:41:06.742Z,1013.25
2018-05-29T01:42:16.469Z,1013.25
2018-05-29T01:43:26.183Z,1013.23
2018-05-29T01:44:35.911Z,1013.23
2018-05-29T01:45:45.634Z,1013.25
2018-05-29T01:46:55.600Z,1013.22
2018-05-29T01:48:05.576Z,1013.22
2018-05-29T01:49:15.558Z,1013.21
2018-05-29T01:50:25.551Z,1013.21
2018-05-29T01:51:35.270Z,1013.19
2018-05-29T01:52:45.238Z,1013.18
2018-05-29T01:53:55.224Z,1013.21
2018-05-29T01:55:04.935Z,1013.18
2018-05-29T01:56:14.913Z,1013.15
2018-05-29T01:57:24.884Z,1013.12
2018-05-29T01:58:34.847Z,1013.17
2018-05-29T01:59:44.833Z,1013.13
2018-05-29T02:00:54.810Z,1013.13
2018-05-29T02:02:04.537Z,1013.15
2018-05-29T02:03:14.509Z,1013.15
2018-05-29T02:04:24.281Z,1013.18
2018-05-29T02:05:34.522Z,1013.2
2018-05-29T02:06:44.243Z,1013.19
2018-05-29T02:07:54.220Z,1013.18
2018-05-29T02:09:04.191Z,1013.13
2018-05-29T02:10:14.173Z,1013.14
2018-05-29T02:11:24.160Z,1013.15
2018-05-29T02:12:33.880Z,1013.17
2018-05-29T02:13:43.603Z,1013.17
2018-05-29T02:14:53.586Z,1013.14
2018-05-29T02:16:03.302Z,1013.11
2018-05-29T02:17:13.267Z,1013.15
2018-05-29T02:18:23.250Z,1013.16
2018-05-29T02:19:33.224Z,1013.15
2018-05-29T02:20:42.425Z,1013.17
2018-05-29T02:21:52.396Z,1013.13
2018-05-29T02:23:02.111Z,1013.11
2018-05-29T02:24:12.087Z,1013.12
2018-05-29T02:25:21.807Z,1013.13
2018-05-29T02:26:31.517Z,1013.11
2018-05-29T02:27:40.976Z,1013.11
2018-05-29T02:28:50.691Z,1013.13
2018-05-29T02:30:00.668Z,1013.12
2018-05-29T02:31:10.662Z,1013.08
2018-05-29T02:32:20.648Z,1013.14
2018-05-29T02:33:30.122Z,1013.18
2018-05-29T02:34:40.129Z,1013.16
2018-05-29T02:35:50.106Z,1013.15
2018-05-29T02:37:00.081Z,1013.14
2018-05-29T02:38:10.058Z,1013.13
2018-05-29T02:39:20.035Z,1013.13
2018-05-29T02:40:30.013Z,1013.09
2018-05-29T02:41:39.989Z,1013.12
2018-05-29T02:42:49.975Z,1013.09
2018-05-29T02:43:59.714Z,1013.08
2018-05-29T02:45:09.702Z,1013.06
2018-05-29T02:46:19.692Z,1013.09
2018-05-29T02:47:29.681Z,1013.03
2018-05-29T02:48:39.666Z,1013.06
2018-05-29T02:49:49.644Z,1013.04
2018-05-29T02:50:59.623Z,1013.07
2018-05-29T02:52:09.344Z,1013.05
2018-05-29T02:53:19.316Z,1012.98
2018-05-29T02:54:29.287Z,1013.06
2018-05-29T02:55:38.990Z,1013.04
2018-05-29T02:56:48.715Z,1013.03
2018-05-29T02:57:58.703Z,1013.02
2018-05-29T02:59:08.672Z,1013
2018-05-29T03:00:18.648Z,1013
2018-05-29T03:01:28.357Z,1013.01
2018-05-29T03:02:38.084Z,1013.03
2018-05-29T03:03:48.063Z,1012.96
2018-05-29T03:04:58.047Z,1013.01
2018-05-29T03:06:08.011Z,1012.99
2018-05-29T03:07:17.467Z,1013.01
2018-05-29T03:08:27.451Z,1013.01
2018-05-29T03:09:37.436Z,1013
2018-05-29T03:10:47.409Z,1013
2018-05-29T03:11:57.382Z,1012.98
2018-05-29T03:13:07.351Z,1012.98
2018-05-29T03:14:17.326Z,1012.97
2018-05-29T03:15:27.294Z,1012.99
2018-05-29T03:16:37.004Z,1012.95
2018-05-29T03:17:46.971Z,1012.94
2018-05-29T03:18:56.945Z,1012.91
2018-05-29T03:20:06.938Z,1012.95
2018-05-29T03:21:16.914Z,1012.89
2018-05-29T03:22:26.634Z,1012.89
2018-05-29T03:23:36.609Z,1012.91
2018-05-29T03:24:46.586Z,1012.9
2018-05-29T03:25:56.572Z,1012.87
2018-05-29T03:27:06.289Z,1012.89
2018-05-29T03:28:16.003Z,1012.9
2018-05-29T03:29:25.978Z,1012.92
2018-05-29T03:30:35.704Z,1012.93
2018-05-29T03:31:45.427Z,1012.97
2018-05-29T03:32:55.432Z,1012.96
2018-05-29T03:34:05.401Z,1012.98
2018-05-29T03:35:15.392Z,1012.97
2018-05-29T03:36:25.372Z,1012.98
2018-05-29T03:37:35.349Z,1012.95
2018-05-29T03:38:45.075Z,1012.97
2018-05-29T03:39:54.800Z,1012.97
2018-05-29T03:41:04.792Z,1012.99
2018-05-29T03:42:14.515Z,1012.99
2018-05-29T03:43:24.486Z,1012.95
2018-05-29T03:44:34.244Z,1013.01
2018-05-29T03:45:44.223Z,1012.97
2018-05-29T03:46:54.194Z,1012.95
2018-05-29T03:48:04.159Z,1012.98
2018-05-29T03:49:13.610Z,1012.96
2018-05-29T03:50:23.312Z,1012.94
2018-05-29T03:51:33.027Z,1012.91
2018-05-29T03:52:43.013Z,1012.88
2018-05-29T03:53:52.470Z,1012.94
2018-05-29T03:55:02.449Z,1012.92
2018-05-29T03:56:12.420Z,1012.9
2018-05-29T03:57:22.399Z,1012.9
2018-05-29T03:58:32.378Z,1012.89
2018-05-29T03:59:42.089Z,1012.91
2018-05-29T04:00:52.044Z,1012.88
2018-05-29T04:02:01.762Z,1012.91
2018-05-29T04:03:11.746Z,1012.87
2018-05-29T04:04:21.718Z,1012.91
2018-05-29T04:05:31.685Z,1012.83
2018-05-29T04:06:41.659Z,1012.87
2018-05-29T04:07:51.622Z,1012.86
2018-05-29T04:09:01.339Z,1012.8
2018-05-29T04:10:11.314Z,1012.87
2018-05-29T04:11:21.029Z,1012.88
2018-05-29T04:12:31.004Z,1012.86
2018-05-29T04:13:40.722Z,1012.89
2018-05-29T04:14:50.451Z,1012.87
2018-05-29T04:16:00.438Z,1012.85
2018-05-29T04:17:10.407Z,1012.88
2018-05-29T04:18:20.118Z,1012.86
2018-05-29T04:19:30.096Z,1012.83
2018-05-29T04:20:40.071Z,1012.8
2018-05-29T04:21:50.065Z,1012.87
2018-05-29T04:22:59.791Z,1012.84
2018-05-29T04:24:09.762Z,1012.88
2018-05-29T04:25:19.475Z,1012.87
2018-05-29T04:26:29.462Z,1012.87
2018-05-29T04:27:38.917Z,1012.87
2018-05-29T04:28:48.637Z,1012.88
2018-05-29T04:29:58.358Z,1012.89
2018-05-29T04:31:08.074Z,1012.91
2018-05-29T04:32:17.526Z,1012.94
2018-05-29T04:33:27.235Z,1012.94
2018-05-29T04:34:36.951Z,1012.94
2018-05-29T04:35:46.665Z,1012.94
2018-05-29T04:36:56.373Z,1012.96
2018-05-29T04:38:06.346Z,1012.95
2018-05-29T04:39:16.318Z,1012.97
2018-05-29T04:40:26.303Z,1012.95
2018-05-29T04:41:36.276Z,1012.95
2018-05-29T04:42:45.990Z,1013
2018-05-29T04:43:55.971Z,1012.98
2018-05-29T04:45:05.680Z,1012.97
2018-05-29T04:46:15.665Z,1012.98
2018-05-29T04:47:25.650Z,1013
2018-05-29T04:48:35.637Z,1012.98
2018-05-29T04:49:45.126Z,1013.03
2018-05-29T04:50:54.925Z,1013.02
2018-05-29T04:52:04.932Z,1013.03
2018-05-29T04:53:14.656Z,1013.07
2018-05-29T04:54:24.639Z,1013.08
2018-05-29T04:55:34.355Z,1013.04
2018-05-29T04:56:44.084Z,1013.07
2018-05-29T04:57:54.078Z,1013.03
2018-05-29T04:59:04.041Z,1013.03
2018-05-29T05:00:14.022Z,1013.02
2018-05-29T05:01:24.010Z,1013.03
2018-05-29T05:02:34.056Z,1013.02
2018-05-29T05:03:44.206Z,1013.04
2018-05-29T05:04:53.924Z,1013.03
2018-05-29T05:06:03.922Z,1013.09
2018-05-29T05:07:13.645Z,1013.11
2018-05-29T05:08:23.107Z,1013.08
2018-05-29T05:09:33.091Z,1013.08
2018-05-29T05:10:42.818Z,1013.11
2018-05-29T05:11:52.270Z,1013.13
2018-05-29T05:13:02.278Z,1013.15
2018-05-29T05:14:12.264Z,1013.08
2018-05-29T05:15:22.239Z,1013.06
2018-05-29T05:16:32.217Z,1013.12
2018-05-29T05:17:41.928Z,1013.11
2018-05-29T05:18:51.889Z,1013.13
2018-05-29T05:20:01.603Z,1013.14
2018-05-29T05:21:11.395Z,1013.16
2018-05-29T05:22:21.114Z,1013.15
2018-05-29T05:23:30.342Z,1013.13
2018-05-29T05:24:40.536Z,1013.13
2018-05-29T05:25:50.260Z,1013.11
2018-05-29T05:27:00.242Z,1013.14
2018-05-29T05:28:10.240Z,1013.14
2018-05-29T05:29:20.232Z,1013.1
2018-05-29T05:30:30.327Z,1013.15
2018-05-29T05:31:40.384Z,1013.12
2018-05-29T05:32:50.408Z,1013.15
2018-05-29T05:34:00.420Z,1013.15
2018-05-29T05:35:10.154Z,1013.14
2018-05-29T05:36:20.428Z,1013.13
2018-05-29T05:37:30.419Z,1013.12
2018-05-29T05:38:40.415Z,1013.21
2018-05-29T05:39:50.393Z,1013.14
2018-05-29T05:41:00.622Z,1013.24
2018-05-29T05:42:10.097Z,1013.24
2018-05-29T05:43:20.091Z,1013.2
2018-05-29T05:44:29.807Z,1013.18
2018-05-29T05:45:39.794Z,1013.18
2018-05-29T05:46:49.773Z,1013.21
2018-05-29T05:47:59.512Z,1013.18
2018-05-29T05:49:09.248Z,1013.22
2018-05-29T05:50:19.233Z,1013.24
2018-05-29T05:51:28.965Z,1013.21
2018-05-29T05:52:38.966Z,1013.24
2018-05-29T05:53:49.188Z,1013.25
2018-05-29T05:54:58.905Z,1013.23
2018-05-29T05:56:08.635Z,1013.18
2018-05-29T05:57:18.365Z,1013.22
2018-05-29T05:58:28.369Z,1013.16
2018-05-29T05:59:38.660Z,1013.18
2018-05-29T06:00:48.637Z,1013.19
2018-05-29T06:01:58.613Z,1013.18
2018-05-29T06:03:08.587Z,1013.16
2018-05-29T06:04:18.331Z,1013.14
2018-05-29T06:05:28.432Z,1013.18
2018-05-29T06:06:38.467Z,1013.2
2018-05-29T06:07:48.477Z,1013.14
2018-05-29T06:08:58.473Z,1013.13
2018-05-29T06:10:08.452Z,1013.16
2018-05-29T06:11:18.465Z,1013.13
2018-05-29T06:12:28.466Z,1013.19
2018-05-29T06:13:38.199Z,1013.17
2018-05-29T06:14:48.191Z,1013.14
2018-05-29T06:15:58.196Z,1013.17
2018-05-29T06:17:07.996Z,1013.13
2018-05-29T06:18:18.025Z,1013.18
2018-05-29T06:19:27.989Z,1013.14
2018-05-29T06:20:37.715Z,1013.13
2018-05-29T06:21:47.523Z,1013.13
2018-05-29T06:22:57.540Z,1013.13
2018-05-29T06:24:07.030Z,1013.12
2018-05-29T06:25:17.052Z,1013.08
2018-05-29T06:26:27.036Z,1013.08
2018-05-29T06:27:37.010Z,1013.1
2018-05-29T06:28:47.014Z,1013.11
2018-05-29T06:29:57.024Z,1013.08
2018-05-29T06:31:06.501Z,1013.07
2018-05-29T06:32:16.495Z,1013.1
2018-05-29T06:33:26.477Z,1013.08
2018-05-29T06:34:36.469Z,1013.1
2018-05-29T06:35:46.192Z,1013.09
2018-05-29T06:36:55.916Z,1013.05
2018-05-29T06:38:05.939Z,1013.07
2018-05-29T06:39:16.036Z,1013.07
2018-05-29T06:40:26.013Z,1013.1
2018-05-29T06:41:36.016Z,1013.09
2018-05-29T06:42:45.743Z,1013.07
2018-05-29T06:43:55.726Z,1013.12
2018-05-29T06:45:05.863Z,1013.1
2018-05-29T06:46:16.173Z,1013.17
2018-05-29T06:47:26.168Z,1013.09
2018-05-29T06:48:35.887Z,1013.1
2018-05-29T06:49:45.879Z,1013.09
2018-05-29T06:50:55.593Z,1013.08
2018-05-29T06:52:05.330Z,1013.08
2018-05-29T06:53:15.072Z,1013.05
2018-05-29T06:54:25.058Z,1013.06
2018-05-29T06:55:34.781Z,1013.06
2018-05-29T06:56:44.783Z,1013.07
2018-05-29T06:57:54.761Z,1013.02
2018-05-29T06:59:04.759Z,1012.98
2018-05-29T07:00:14.490Z,1012.99
2018-05-29T07:01:24.467Z,1012.99
2018-05-29T07:02:34.462Z,1013.01
2018-05-29T07:03:44.211Z,1012.97
2018-05-29T07:04:54.356Z,1013
2018-05-29T07:06:03.833Z,1012.93
2018-05-29T07:07:13.827Z,1012.92
2018-05-29T07:08:23.555Z,1012.95
2018-05-29T07:09:33.551Z,1012.86
2018-05-29T07:10:43.530Z,1012.83
2018-05-29T07:11:53.268Z,1012.86
2018-05-29T07:13:03.270Z,1012.88
2018-05-29T07:14:12.743Z,1012.86
2018-05-29T07:15:22.813Z,1012.86
2018-05-29T07:16:32.791Z,1012.85
2018-05-29T07:17:42.761Z,1012.83
2018-05-29T07:18:52.766Z,1012.88
2018-05-29T07:20:02.245Z,1012.85
2018-05-29T07:21:12.219Z,1012.82
2018-05-29T07:22:21.679Z,1012.81
2018-05-29T07:23:31.675Z,1012.81
2018-05-29T07:24:41.670Z,1012.79
2018-05-29T07:25:51.874Z,1012.77
2018-05-29T07:27:01.859Z,1012.81
2018-05-29T07:28:11.909Z,1012.81
2018-05-29T07:29:21.891Z,1012.77
2018-05-29T07:30:31.891Z,1012.79
2018-05-29T07:31:41.898Z,1012.73
2018-05-29T07:32:51.912Z,1012.72
2018-05-29T07:34:01.640Z,1012.67
2018-05-29T07:35:11.116Z,1012.71
2018-05-29T07:36:21.090Z,1012.69
2018-05-29T07:37:30.878Z,1012.64
2018-05-29T07:38:40.631Z,1012.6
2018-05-29T07:39:50.704Z,1012.65
2018-05-29T07:41:00.688Z,1012.61
2018-05-29T07:42:10.159Z,1012.58
2018-05-29T07:43:19.890Z,1012.57
2018-05-29T07:44:29.893Z,1012.55
2018-05-29T07:45:39.658Z,1012.61
2018-05-29T07:46:49.383Z,1012.57
2018-05-29T07:47:59.120Z,1012.53
2018-05-29T07:49:09.371Z,1012.52
2018-05-29T07:50:19.366Z,1012.49
2018-05-29T07:51:29.384Z,1012.41
2018-05-29T07:52:39.118Z,1012.47
2018-05-29T07:53:49.120Z,1012.41
2018-05-29T07:54:59.168Z,1012.45
2018-05-29T07:56:09.265Z,1012.41
2018-05-29T07:57:19.266Z,1012.4
2018-05-29T07:58:28.956Z,1012.4
2018-05-29T07:59:38.942Z,1012.31
2018-05-29T08:00:48.945Z,1012.27
2018-05-29T08:01:58.947Z,1012.3
2018-05-29T08:03:08.946Z,1012.34
2018-05-29T08:04:18.939Z,1012.33
2018-05-29T08:05:28.956Z,1012.37
2018-05-29T08:06:38.722Z,1012.28
2018-05-29T08:07:48.500Z,1012.32
2018-05-29T08:08:58.513Z,1012.33
2018-05-29T08:10:08.556Z,1012.24
2018-05-29T08:11:18.290Z,1012.28
2018-05-29T08:12:28.299Z,1012.3
2018-05-29T08:13:38.308Z,1012.27
2018-05-29T08:14:48.075Z,1012.22
2018-05-29T08:15:57.813Z,1012.27
2018-05-29T08:17:07.778Z,1012.26
2018-05-29T08:18:17.796Z,1012.25
2018-05-29T08:19:27.537Z,1012.17
2018-05-29T08:20:37.555Z,1012.29
2018-05-29T08:21:47.282Z,1012.22
2018-05-29T08:22:57.342Z,1012.2
2018-05-29T08:24:07.331Z,1012.14
2018-05-29T08:25:17.077Z,1012.15
2018-05-29T08:26:26.864Z,1012.23
2018-05-29T08:27:37.101Z,1012.18
2018-05-29T08:28:47.118Z,1012.17
2018-05-29T08:29:57.243Z,1012.18
2018-05-29T08:31:07.297Z,1012.14
2018-05-29T08:32:17.357Z,1012.13
2018-05-29T08:33:26.838Z,1012.14
2018-05-29T08:34:36.899Z,1012.12
2018-05-29T08:35:46.910Z,1012.2
2018-05-29T08:36:56.651Z,1012.11
2018-05-29T08:38:06.445Z,1012.11
2018-05-29T08:39:16.212Z,1012.14
2018-05-29T08:40:26.355Z,1012.18
2018-05-29T08:41:36.075Z,1012.26
2018-05-29T08:42:46.068Z,1012.19
2018-05-29T08:43:55.534Z,1012.15
2018-05-29T08:45:05.560Z,1012.17
2018-05-29T08:46:15.048Z,1012.18
2018-05-29T08:47:25.004Z,1012.15
2018-05-29T08:48:34.997Z,1012.08
2018-05-29T08:49:44.732Z,1012.11
2018-05-29T08:50:54.717Z,1012.12
2018-05-29T08:52:04.719Z,1012.08
2018-05-29T08:53:14.715Z,1012.09
2018-05-29T08:54:24.731Z,1012.08
2018-05-29T08:55:34.743Z,1012.14
2018-05-29T08:56:44.768Z,1012.12
2018-05-29T08:57:54.939Z,1012.06
2018-05-29T08:59:04.950Z,1012.05
2018-05-29T09:00:14.692Z,1011.98
2018-05-29T09:01:24.689Z,1012.06
2018-05-29T09:02:34.680Z,1011.99
2018-05-29T09:03:44.732Z,1011.99
2018-05-29T09:04:55.340Z,1012.04
2018-05-29T09:06:05.369Z,1012.01
2018-05-29T09:07:15.416Z,1011.93
2018-05-29T09:08:25.414Z,1011.9
2018-05-29T09:09:35.427Z,1011.98
2018-05-29T09:10:45.159Z,1011.95
2018-05-29T09:11:55.332Z,1011.97
2018-05-29T09:13:05.484Z,1011.97
2018-05-29T09:14:15.217Z,1012
2018-05-29T09:15:25.225Z,1011.98
2018-05-29T09:16:35.243Z,1011.98
2018-05-29T09:17:45.230Z,1011.93
2018-05-29T09:18:55.230Z,1011.97
2018-05-29T09:20:05.350Z,1011.97
2018-05-29T09:21:15.453Z,1011.95
2018-05-29T09:22:24.939Z,1011.93
2018-05-29T09:23:34.929Z,1011.99
2018-05-29T09:24:44.947Z,1011.94
2018-05-29T09:25:54.955Z,1011.93
2018-05-29T09:27:05.092Z,1011.92
2018-05-29T09:28:15.091Z,1011.97
2018-05-29T09:29:25.096Z,1011.95
2018-05-29T09:30:35.202Z,1011.97
2018-05-29T09:31:44.969Z,1011.93
2018-05-29T09:32:54.771Z,1011.93
2018-05-29T09:34:04.777Z,1011.87
2018-05-29T09:35:14.749Z,1011.87
2018-05-29T09:36:24.506Z,1011.81
2018-05-29T09:37:34.539Z,1011.82
2018-05-29T09:38:44.549Z,1011.91
2018-05-29T09:39:54.404Z,1011.77
2018-05-29T09:41:04.450Z,1011.81
2018-05-29T09:42:14.471Z,1011.82
2018-05-29T09:43:24.484Z,1011.86
2018-05-29T09:44:34.251Z,1011.83
2018-05-29T09:45:44.162Z,1011.84
2018-05-29T09:46:54.540Z,1011.82
2018-05-29T09:48:04.025Z,1011.84
2018-05-29T09:49:14.128Z,1011.82
2018-05-29T09:50:23.604Z,1011.8
2018-05-29T09:51:33.336Z,1011.78
2018-05-29T09:52:43.346Z,1011.78
2018-05-29T09:53:53.199Z,1011.73
2018-05-29T09:55:02.934Z,1011.74
2018-05-29T09:56:12.997Z,1011.78
2018-05-29T09:57:22.741Z,1011.76
2018-05-29T09:58:32.485Z,1011.7
2018-05-29T09:59:42.228Z,1011.69
2018-05-29T10:00:51.973Z,1011.59
2018-05-29T10:02:01.451Z,1011.72
2018-05-29T10:03:11.194Z,1011.73
2018-05-29T10:04:21.197Z,1011.73
2018-05-29T10:05:30.952Z,1011.67
2018-05-29T10:06:41.002Z,1011.61
2018-05-29T10:07:51.242Z,1011.58
2018-05-29T10:09:00.979Z,1011.6
2018-05-29T10:10:10.982Z,1011.57
2018-05-29T10:11:20.806Z,1011.52
2018-05-29T10:12:30.706Z,1011.53
2018-05-29T10:13:40.442Z,1011.55
2018-05-29T10:14:50.498Z,1011.52
2018-05-29T10:16:00.243Z,1011.53
2018-05-29T10:17:10.244Z,1011.51
2018-05-29T10:18:20.025Z,1011.52
2018-05-29T10:19:30.039Z,1011.5
2018-05-29T10:20:39.771Z,1011.52
2018-05-29T10:21:49.751Z,1011.61
2018-05-29T10:22:59.476Z,1011.51
2018-05-29T10:24:09.482Z,1011.58
2018-05-29T10:25:19.222Z,1011.5
2018-05-29T10:26:28.951Z,1011.5
2018-05-29T10:27:38.693Z,1011.48
2018-05-29T10:28:48.696Z,1011.43
2018-05-29T10:29:58.709Z,1011.43
2018-05-29T10:31:08.762Z,1011.42
2018-05-29T10:32:18.769Z,1011.42
2018-05-29T10:33:28.770Z,1011.43
2018-05-29T10:34:38.561Z,1011.39
2018-05-29T10:35:48.575Z,1011.35
2018-05-29T10:36:58.607Z,1011.43
2018-05-29T10:38:08.597Z,1011.42
2018-05-29T10:39:18.606Z,1011.46
2018-05-29T10:40:28.605Z,1011.45
2018-05-29T10:41:38.353Z,1011.39
2018-05-29T10:42:48.382Z,1011.45
2018-05-29T10:43:58.356Z,1011.44
2018-05-29T10:45:08.095Z,1011.39
2018-05-29T10:46:18.107Z,1011.36
2018-05-29T10:47:28.123Z,1011.23
2018-05-29T10:48:38.134Z,1011.33
2018-05-29T10:49:48.142Z,1011.3
2018-05-29T10:50:57.893Z,1011.31
2018-05-29T10:52:07.648Z,1011.35
2018-05-29T10:53:17.652Z,1011.32
2018-05-29T10:54:27.670Z,1011.32
2018-05-29T10:55:37.743Z,1011.29
2018-05-29T10:56:47.755Z,1011.2
2018-05-29T10:57:57.790Z,1011.21
2018-05-29T10:59:07.826Z,1011.17
2018-05-29T11:00:17.853Z,1011.15
2018-05-29T11:01:27.858Z,1011.12
2018-05-29T11:02:37.849Z,1011.18
2018-05-29T11:03:47.340Z,1011.19
2018-05-29T11:04:57.359Z,1011.16
2018-05-29T11:06:07.364Z,1011.17
2018-05-29T11:07:17.374Z,1011.19
2018-05-29T11:08:26.893Z,1011.19
2018-05-29T11:09:36.905Z,1011.14
2018-05-29T11:10:46.927Z,1011.12
2018-05-29T11:11:56.665Z,1011.24
2018-05-29T11:13:06.403Z,1011.21
2018-05-29T11:14:16.433Z,1011.23
2018-05-29T11:15:26.631Z,1011.2
2018-05-29T11:16:36.641Z,1011.1
2018-05-29T11:17:46.389Z,1011.14
2018-05-29T11:18:56.170Z,1011.08
2018-05-29T11:20:06.210Z,1011.09
2018-05-29T11:21:16.523Z,1011.07
2018-05-29T11:22:26.525Z,1011.08
2018-05-29T11:23:36.520Z,1011.06
2018-05-29T11:24:46.281Z,1011
2018-05-29T11:25:56.293Z,1010.97
2018-05-29T11:27:06.317Z,1010.95
2018-05-29T11:28:16.058Z,1010.89
2018-05-29T11:29:26.073Z,1010.93
2018-05-29T11:30:35.820Z,1010.9
2018-05-29T11:31:45.571Z,1010.89
2018-05-29T11:32:55.556Z,1010.94
2018-05-29T11:34:05.541Z,1010.93
2018-05-29T11:35:15.547Z,1010.91
2018-05-29T11:36:25.554Z,1010.87
2018-05-29T11:37:35.284Z,1010.89
2018-05-29T11:38:45.279Z,1010.89
2018-05-29T11:39:55.025Z,1010.82
2018-05-29T11:41:04.779Z,1010.76
2018-05-29T11:42:14.773Z,1010.78
2018-05-29T11:43:24.826Z,1010.82
2018-05-29T11:44:34.972Z,1010.81
2018-05-29T11:45:44.982Z,1010.78
2018-05-29T11:46:54.983Z,1010.8
2018-05-29T11:48:04.475Z,1010.69
2018-05-29T11:49:14.226Z,1010.67
2018-05-29T11:50:23.958Z,1010.69
2018-05-29T11:51:33.704Z,1010.63
2018-05-29T11:52:43.444Z,1010.74
2018-05-29T11:53:53.467Z,1010.73
2018-05-29T11:55:03.206Z,1010.75
2018-05-29T11:56:13.233Z,1010.71
2018-05-29T11:57:23.235Z,1010.71
2018-05-29T11:58:33.249Z,1010.71
2018-05-29T11:59:43.019Z,1010.67
2018-05-29T12:00:53.032Z,1010.67
2018-05-29T12:02:02.533Z,1010.62
2018-05-29T12:03:12.549Z,1010.59
2018-05-29T12:04:22.539Z,1010.63
2018-05-29T12:05:32.523Z,1010.63
2018-05-29T12:06:42.258Z,1010.63
2018-05-29T12:07:52.250Z,1010.62
2018-05-29T12:09:01.735Z,1010.55
2018-05-29T12:10:11.204Z,1010.59
2018-05-29T12:11:21.197Z,1010.55
2018-05-29T12:12:31.244Z,1010.52
2018-05-29T12:13:40.984Z,1010.53
2018-05-29T12:14:50.983Z,1010.49
2018-05-29T12:16:01.009Z,1010.48
2018-05-29T12:17:11.060Z,1010.47
2018-05-29T12:18:21.056Z,1010.44
2018-05-29T12:19:31.081Z,1010.43
2018-05-29T12:20:40.839Z,1010.46
2018-05-29T12:21:50.854Z,1010.44
2018-05-29T12:23:00.866Z,1010.44
2018-05-29T12:24:10.615Z,1010.41
2018-05-29T12:25:20.372Z,1010.39
2018-05-29T12:26:30.381Z,1010.45
2018-05-29T12:27:40.137Z,1010.45
2018-05-29T12:28:50.169Z,1010.45
2018-05-29T12:30:00.159Z,1010.36
2018-05-29T12:31:09.925Z,1010.38
2018-05-29T12:32:19.929Z,1010.38
2018-05-29T12:33:30.084Z,1010.36
2018-05-29T12:34:39.819Z,1010.32
2018-05-29T12:35:49.829Z,1010.29
2018-05-29T12:36:59.828Z,1010.28
2018-05-29T12:38:09.555Z,1010.3
2018-05-29T12:39:19.552Z,1010.32
2018-05-29T12:40:29.297Z,1010.26
2018-05-29T12:41:39.303Z,1010.25
2018-05-29T12:42:49.307Z,1010.29
2018-05-29T12:43:59.299Z,1010.16
2018-05-29T12:45:09.308Z,1010.24
2018-05-29T12:46:19.376Z,1010.28
2018-05-29T12:47:29.814Z,1010.25
2018-05-29T12:48:39.808Z,1010.27
2018-05-29T12:49:49.804Z,1010.21
2018-05-29T12:50:59.534Z,1010.19
2018-05-29T12:52:09.543Z,1010.19
2018-05-29T12:53:19.062Z,1010.19
2018-05-29T12:54:28.862Z,1010.18
2018-05-29T12:55:38.855Z,1010.16
2018-05-29T12:56:48.848Z,1010.13
2018-05-29T12:57:58.867Z,1010.09
2018-05-29T12:59:08.881Z,1010.11
2018-05-29T13:00:19.053Z,1010.06
2018-05-29T13:01:28.786Z,1010.07
2018-05-29T13:02:38.788Z,1010.08
2018-05-29T13:03:48.822Z,1010.08
2018-05-29T13:04:58.564Z,1010.11
2018-05-29T13:06:08.576Z,1010.08
2018-05-29T13:07:18.590Z,1010.1
2018-05-29T13:08:28.620Z,1010.06
2018-05-29T13:09:38.366Z,1010.07
2018-05-29T13:10:48.372Z,1010.03
2018-05-29T13:11:58.115Z,1010.08
2018-05-29T13:13:08.123Z,1010
2018-05-29T13:14:18.144Z,1010.03
2018-05-29T13:15:28.184Z,1009.97
2018-05-29T13:16:38.229Z,1009.95
2018-05-29T13:17:48.480Z,1009.96
2018-05-29T13:18:58.488Z,1009.97
2018-05-29T13:20:08.229Z,1009.94
2018-05-29T13:21:18.204Z,1009.97
2018-05-29T13:22:28.224Z,1009.87
2018-05-29T13:23:38.201Z,1009.86
2018-05-29T13:24:47.947Z,1009.85
2018-05-29T13:25:57.668Z,1009.8
2018-05-29T13:27:07.456Z,1009.84
2018-05-29T13:28:16.942Z,1009.81
2018-05-29T13:29:26.960Z,1009.85
2018-05-29T13:30:36.968Z,1009.84
2018-05-29T13:31:46.963Z,1009.85
2018-05-29T13:32:56.710Z,1009.74
2018-05-29T13:34:06.706Z,1009.8
2018-05-29T13:35:16.728Z,1009.77
2018-05-29T13:36:26.949Z,1009.72
2018-05-29T13:37:36.959Z,1009.68
2018-05-29T13:38:46.965Z,1009.6
2018-05-29T13:39:56.979Z,1009.58
2018-05-29T13:41:06.994Z,1009.61
2018-05-29T13:42:16.745Z,1009.62
2018-05-29T13:43:26.234Z,1009.63
2018-05-29T13:44:35.965Z,1009.6
2018-05-29T13:45:45.769Z,1009.57
2018-05-29T13:46:55.505Z,1009.61
2018-05-29T13:48:05.251Z,1009.6
2018-05-29T13:49:15.005Z,1009.5
2018-05-29T13:50:24.887Z,1009.49
2018-05-29T13:51:34.884Z,1009.5
2018-05-29T13:52:44.913Z,1009.54
2018-05-29T13:53:54.926Z,1009.58
2018-05-29T13:55:04.944Z,1009.48
2018-05-29T13:56:14.943Z,1009.54
2018-05-29T13:57:24.995Z,1009.47
2018-05-29T13:58:34.999Z,1009.46
2018-05-29T13:59:45.092Z,1009.46
2018-05-29T14:00:55.179Z,1009.44
2018-05-29T14:02:05.197Z,1009.39
2018-05-29T14:03:15.198Z,1009.37
2018-05-29T14:04:25.326Z,1009.35
2018-05-29T14:05:35.324Z,1009.32
2018-05-29T14:06:45.353Z,1009.32
2018-05-29T14:07:55.118Z,1009.27
2018-05-29T14:09:04.926Z,1009.26